createdAt,value
2018-10-02T00:02:19.136Z,97.30
2018-10-02T00:04:47.410Z,97.30
2018-10-02T00:07:15.627Z,98.00
2018-10-02T00:09:43.796Z,98.00
2018-10-02T00:12:17.443Z,98.20
2018-10-02T00:14:45.597Z,98.30
2018-10-02T00:17:13.800Z,98.20
2018-10-02T00:19:41.956Z,98.30
2018-10-02T00:22:10.176Z,98.30
2018-10-02T00:24:38.359Z,98.50
2018-10-02T00:27:06.600Z,98.30
2018-10-02T00:29:34.752Z,98.50
2018-10-02T00:32:03.050Z,98.30
2018-10-02T00:34:31.307Z,97.80
2018-10-02T00:36:59.466Z,97.80
2018-10-02T00:39:27.753Z,97.40
2018-10-02T00:41:55.956Z,97.20
2018-10-02T00:44:24.157Z,96.80
2018-10-02T00:46:52.388Z,97.10
2018-10-02T00:49:20.580Z,97.30
2018-10-02T00:51:48.811Z,97.30
2018-10-02T00:54:16.964Z,96.90
2018-10-02T00:56:45.169Z,96.90
2018-10-02T00:59:13.325Z,96.70
2018-10-02T01:01:41.485Z,97.20
2018-10-02T01:04:09.672Z,97.00
2018-10-02T01:06:37.885Z,96.90
2018-10-02T01:09:08.694Z,96.80
2018-10-02T01:11:36.904Z,97.30
2018-10-02T01:14:05.411Z,96.90
2018-10-02T01:16:33.627Z,96.70
2018-10-02T01:19:01.846Z,96.70
2018-10-02T01:21:30.048Z,96.60
2018-10-02T01:23:58.232Z,96.30
2018-10-02T01:26:26.448Z,96.50
2018-10-02T01:28:54.698Z,96.70
2018-10-02T01:31:22.853Z,97.20
2018-10-02T01:33:51.049Z,97.30
2018-10-02T01:36:19.213Z,97.60
2018-10-02T01:38:47.388Z,97.50
2018-10-02T01:41:15.639Z,97.00
2018-10-02T01:43:43.984Z,97.10
2018-10-02T01:46:12.288Z,97.20
2018-10-02T01:48:40.504Z,96.80
2018-10-02T01:51:08.717Z,97.00
2018-10-02T01:53:36.984Z,96.90
2018-10-02T01:56:05.176Z,96.50
2018-10-02T01:58:33.396Z,97.50
2018-10-02T02:01:01.605Z,97.20
2018-10-02T02:03:29.832Z,96.40
2018-10-02T02:05:58.020Z,96.20
2018-10-02T02:08:26.249Z,96.70
2018-10-02T02:10:54.460Z,97.40
2018-10-02T02:13:22.648Z,97.00
2018-10-02T02:15:50.868Z,97.20
2018-10-02T02:18:19.028Z,97.00
2018-10-02T02:20:47.216Z,96.20
2018-10-02T02:23:15.412Z,96.50
2018-10-02T02:25:43.552Z,96.40
2018-10-02T02:28:11.728Z,96.40
2018-10-02T02:30:39.929Z,96.70
2018-10-02T02:33:14.703Z,96.50
2018-10-02T02:35:42.866Z,96.00
2018-10-02T02:38:11.088Z,95.90
2018-10-02T02:40:39.309Z,96.10
2018-10-02T02:43:07.528Z,96.40
2018-10-02T02:45:35.735Z,96.00
2018-10-02T02:48:09.342Z,96.10
2018-10-02T02:51:43.496Z,96.30
2018-10-02T02:54:11.688Z,95.70
2018-10-02T02:56:39.873Z,95.40
2018-10-02T02:59:08.066Z,94.80
2018-10-02T03:01:36.288Z,95.60
2018-10-02T03:04:04.468Z,95.90
2018-10-02T03:06:32.652Z,95.00
2018-10-02T03:09:00.804Z,95.00
2018-10-02T03:11:29.020Z,95.60
2018-10-02T03:13:57.171Z,95.40
2018-10-02T03:16:25.381Z,95.20
2018-10-02T03:18:53.584Z,94.90
2018-10-02T03:21:21.745Z,94.50
2018-10-02T03:23:49.940Z,94.40
2018-10-02T03:26:18.114Z,94.00
2018-10-02T03:28:46.288Z,94.40
2018-10-02T03:31:14.515Z,94.80
2018-10-02T03:33:42.672Z,94.70
2018-10-02T03:36:10.881Z,94.90
2018-10-02T03:38:39.076Z,95.30
2018-10-02T03:41:07.300Z,95.50
2018-10-02T03:43:35.504Z,95.60
2018-10-02T03:46:03.685Z,95.80
2018-10-02T03:48:31.914Z,95.00
2018-10-02T03:51:00.129Z,95.10
2018-10-02T03:53:28.300Z,95.70
2018-10-02T03:55:56.536Z,95.00
2018-10-02T03:58:24.672Z,94.40
2018-10-02T04:00:52.893Z,94.50
2018-10-02T04:03:21.171Z,94.60
2018-10-02T04:05:49.307Z,94.20
2018-10-02T04:08:17.484Z,94.20
2018-10-02T04:10:45.672Z,93.90
2018-10-02T04:13:13.919Z,94.60
2018-10-02T04:15:42.112Z,94.60
2018-10-02T04:18:10.293Z,94.60
2018-10-02T04:20:38.578Z,94.60
2018-10-02T04:23:06.749Z,95.30
2018-10-02T04:25:34.935Z,94.80
2018-10-02T04:28:03.195Z,95.20
2018-10-02T04:30:31.335Z,95.00
2018-10-02T04:32:59.521Z,95.10
2018-10-02T04:35:27.690Z,95.40
2018-10-02T04:37:55.944Z,94.90
2018-10-02T04:40:24.135Z,95.10
2018-10-02T04:42:52.311Z,95.40
2018-10-02T04:45:20.534Z,95.50
2018-10-02T04:47:52.269Z,95.70
2018-10-02T04:50:20.577Z,96.00
2018-10-02T04:52:48.757Z,96.60
2018-10-02T04:55:16.920Z,96.70
2018-10-02T04:57:45.112Z,96.00
2018-10-02T05:00:13.300Z,96.00
2018-10-02T05:02:44.281Z,96.70
2018-10-02T05:05:12.456Z,96.50
2018-10-02T05:07:40.640Z,95.90
2018-10-02T05:10:09.109Z,95.60
2018-10-02T05:12:37.313Z,95.70
2018-10-02T05:15:05.636Z,96.20
2018-10-02T05:17:33.804Z,95.90
2018-10-02T05:20:02.062Z,95.50
2018-10-02T05:22:30.257Z,96.30
2018-10-02T05:24:58.497Z,96.40
2018-10-02T05:27:26.736Z,96.40
2018-10-02T05:29:54.889Z,96.90
2018-10-02T05:32:23.070Z,97.00
2018-10-02T05:34:51.356Z,96.90
2018-10-02T05:37:19.584Z,96.50
2018-10-02T05:39:47.816Z,96.60
2018-10-02T05:42:16.029Z,96.90
2018-10-02T05:44:44.181Z,96.70
2018-10-02T05:47:12.729Z,96.50
2018-10-02T05:49:41.188Z,97.00
2018-10-02T05:52:09.607Z,96.80
2018-10-02T05:54:37.897Z,96.40
2018-10-02T05:57:06.092Z,96.40
2018-10-02T05:59:34.287Z,96.40
2018-10-02T06:02:02.636Z,95.30
2018-10-02T06:04:30.841Z,94.60
2018-10-02T06:06:59.036Z,95.10
2018-10-02T06:09:27.227Z,94.50
2018-10-02T06:11:55.445Z,93.90
2018-10-02T06:14:23.761Z,93.50
2018-10-02T06:16:51.980Z,92.30
2018-10-02T06:19:20.321Z,91.30
2018-10-02T06:21:48.516Z,91.50
2018-10-02T06:24:16.734Z,91.60
2018-10-02T06:26:44.901Z,91.10
2018-10-02T06:29:13.122Z,91.50
2018-10-02T06:31:41.268Z,92.10
2018-10-02T06:34:09.482Z,92.60
2018-10-02T06:36:37.684Z,92.40
2018-10-02T06:39:07.222Z,92.10
2018-10-02T06:41:35.433Z,92.10
2018-10-02T06:44:04.084Z,91.90
2018-10-02T06:46:32.889Z,92.20
2018-10-02T06:49:01.069Z,91.80
2018-10-02T06:51:29.370Z,91.90
2018-10-02T06:53:57.525Z,91.10
2018-10-02T06:56:25.715Z,91.20
2018-10-02T06:58:53.935Z,91.30
2018-10-02T07:01:22.094Z,90.60
2018-10-02T07:03:50.296Z,91.00
2018-10-02T07:06:18.537Z,90.80
2018-10-02T07:08:46.738Z,90.00
2018-10-02T07:11:14.945Z,89.50
2018-10-02T07:13:43.135Z,88.50
2018-10-02T07:16:11.369Z,87.10
2018-10-02T07:18:39.552Z,87.20
2018-10-02T07:21:07.908Z,85.00
2018-10-02T07:23:36.221Z,85.90
2018-10-02T07:26:04.418Z,86.10
2018-10-02T07:28:32.618Z,85.70
2018-10-02T07:31:00.837Z,86.10
2018-10-02T07:33:29.025Z,85.70
2018-10-02T07:35:57.268Z,86.40
2018-10-02T07:38:25.518Z,86.60
2018-10-02T07:40:53.709Z,86.30
2018-10-02T07:43:21.901Z,87.10
2018-10-02T07:45:50.196Z,86.70
2018-10-02T07:48:18.521Z,86.60
2018-10-02T07:50:46.763Z,87.00
2018-10-02T07:53:15.049Z,85.40
2018-10-02T07:55:43.340Z,84.90
2018-10-02T07:58:11.568Z,84.60
2018-10-02T08:00:39.780Z,84.80
2018-10-02T08:03:08.005Z,83.40
2018-10-02T08:05:36.256Z,82.50
2018-10-02T08:08:04.425Z,81.70
2018-10-02T08:10:32.628Z,82.50
2018-10-02T08:13:00.797Z,81.50
2018-10-02T08:15:29.080Z,82.50
2018-10-02T08:17:57.365Z,82.00
2018-10-02T08:20:25.539Z,79.10
2018-10-02T08:22:53.702Z,80.90
2018-10-02T08:25:21.913Z,81.60
2018-10-02T08:27:50.125Z,82.20
2018-10-02T08:30:18.383Z,81.90
2018-10-02T08:32:46.655Z,82.70
2018-10-02T08:35:14.815Z,81.60
2018-10-02T08:37:43.042Z,80.20
2018-10-02T08:40:11.261Z,80.50
2018-10-02T08:42:39.460Z,81.10
2018-10-02T08:45:07.781Z,79.70
2018-10-02T08:47:35.958Z,78.50
2018-10-02T08:50:04.196Z,79.30
2018-10-02T08:52:32.437Z,77.30
2018-10-02T08:55:00.741Z,78.00
2018-10-02T08:57:28.959Z,77.50
2018-10-02T08:59:57.232Z,77.20
2018-10-02T09:02:26.216Z,76.10
2018-10-02T09:04:54.473Z,75.60
2018-10-02T09:07:22.748Z,74.90
2018-10-02T09:09:51.002Z,74.40
2018-10-02T09:12:19.221Z,75.30
2018-10-02T09:14:47.464Z,77.90
2018-10-02T09:17:15.743Z,78.20
2018-10-02T09:19:44.020Z,75.50
2018-10-02T09:22:12.221Z,75.00
2018-10-02T09:24:40.457Z,75.00
2018-10-02T09:27:08.626Z,74.50
2018-10-02T09:29:42.265Z,73.00
2018-10-02T09:32:15.987Z,72.50
2018-10-02T09:34:49.676Z,72.50
2018-10-02T09:37:23.307Z,73.90
2018-10-02T09:39:56.937Z,71.40
2018-10-02T09:42:30.534Z,69.60
2018-10-02T09:44:58.757Z,71.70
2018-10-02T09:47:26.940Z,73.80
2018-10-02T09:49:55.221Z,74.90
2018-10-02T09:52:23.464Z,73.70
2018-10-02T09:54:51.775Z,72.00
2018-10-02T09:57:20.101Z,71.50
2018-10-02T09:59:48.325Z,71.20
2018-10-02T10:02:22.179Z,72.10
2018-10-02T10:04:50.353Z,71.00
2018-10-02T10:07:18.549Z,71.60
2018-10-02T10:09:46.700Z,72.30
2018-10-02T10:12:14.920Z,71.50
2018-10-02T10:14:43.105Z,72.00
2018-10-02T10:17:11.360Z,72.20
2018-10-02T10:19:39.497Z,70.90
2018-10-02T10:22:07.689Z,70.30
2018-10-02T10:24:35.922Z,70.70
2018-10-02T10:27:04.104Z,72.20
2018-10-02T10:29:32.363Z,72.00
2018-10-02T10:32:00.569Z,72.30
2018-10-02T10:34:28.811Z,72.70
2018-10-02T10:36:57.037Z,72.50
2018-10-02T10:39:25.273Z,73.70
2018-10-02T10:41:53.510Z,72.80
2018-10-02T10:44:21.730Z,72.10
2018-10-02T10:46:49.959Z,71.40
2018-10-02T10:49:18.172Z,71.60
2018-10-02T10:51:46.346Z,71.90
2018-10-02T10:54:14.640Z,71.20
2018-10-02T10:56:42.817Z,70.10
2018-10-02T10:59:11.102Z,70.30
2018-10-02T11:01:39.385Z,69.50
2018-10-02T11:04:07.717Z,70.40
2018-10-02T11:06:35.905Z,71.30
2018-10-02T11:09:05.737Z,70.90
2018-10-02T11:11:34.006Z,70.90
2018-10-02T11:14:02.259Z,69.40
2018-10-02T11:16:30.485Z,70.10
2018-10-02T11:18:58.825Z,70.10
2018-10-02T11:21:27.032Z,69.10
2018-10-02T11:23:55.296Z,69.10
2018-10-02T11:26:23.525Z,69.00
2018-10-02T11:28:51.837Z,68.20
2018-10-02T11:31:20.234Z,68.10
2018-10-02T11:33:48.495Z,69.00
2018-10-02T11:36:16.737Z,69.10
2018-10-02T11:38:44.912Z,68.20
2018-10-02T11:41:13.160Z,67.40
2018-10-02T11:43:41.350Z,68.20
2018-10-02T11:46:09.777Z,66.90
2018-10-02T11:48:37.954Z,66.40
2018-10-02T11:51:06.294Z,64.80
2018-10-02T11:53:34.466Z,65.50
2018-10-02T11:56:02.705Z,67.20
2018-10-02T11:58:30.944Z,64.70
2018-10-02T12:00:59.240Z,65.30
2018-10-02T12:03:27.533Z,66.20
2018-10-02T12:05:56.474Z,66.20
2018-10-02T12:08:24.830Z,67.00
2018-10-02T12:10:53.031Z,67.00
2018-10-02T12:13:21.290Z,67.70
2018-10-02T12:15:49.425Z,67.50
2018-10-02T12:18:17.616Z,68.40
2018-10-02T12:20:45.816Z,67.80
2018-10-02T12:23:14.029Z,67.60
2018-10-02T12:25:42.229Z,66.30
2018-10-02T12:28:10.759Z,66.20
2018-10-02T12:30:39.021Z,66.70
2018-10-02T12:33:07.269Z,66.60
2018-10-02T12:35:35.434Z,65.90
2018-10-02T12:38:03.680Z,65.80
2018-10-02T12:40:31.849Z,65.80
2018-10-02T12:43:00.061Z,66.80
2018-10-02T12:45:28.317Z,65.80
2018-10-02T12:47:56.521Z,66.80
2018-10-02T12:50:24.737Z,67.40
2018-10-02T12:52:53.177Z,68.00
2018-10-02T12:55:21.388Z,68.60
2018-10-02T12:57:49.568Z,68.30
2018-10-02T13:00:17.797Z,67.00
2018-10-02T13:02:46.009Z,66.10
2018-10-02T13:05:14.230Z,65.50
2018-10-02T13:07:42.449Z,65.80
2018-10-02T13:10:10.887Z,64.50
2018-10-02T13:12:39.124Z,65.40
2018-10-02T13:15:07.496Z,66.60
2018-10-02T13:17:35.697Z,65.80
2018-10-02T13:20:05.712Z,66.10
2018-10-02T13:22:33.945Z,66.90
2018-10-02T13:25:02.356Z,66.90
2018-10-02T13:27:30.577Z,66.90
2018-10-02T13:29:58.925Z,66.90
2018-10-02T13:32:27.147Z,67.60
2018-10-02T13:34:55.484Z,66.90
2018-10-02T13:37:23.748Z,67.60
2018-10-02T13:39:51.968Z,68.20
2018-10-02T13:42:20.180Z,67.40
2018-10-02T13:44:48.418Z,68.10
2018-10-02T13:47:16.612Z,68.20
2018-10-02T13:49:44.804Z,68.20
2018-10-02T13:52:12.998Z,68.40
2018-10-02T13:54:41.225Z,69.20
2018-10-02T13:57:09.492Z,69.50
2018-10-02T13:59:37.756Z,68.80
2018-10-02T14:02:06.037Z,69.00
2018-10-02T14:04:34.264Z,69.70
2018-10-02T14:07:02.488Z,69.30
2018-10-02T14:09:30.993Z,70.60
2018-10-02T14:11:59.250Z,70.70
2018-10-02T14:14:27.430Z,69.90
2018-10-02T14:16:56.533Z,71.00
2018-10-02T14:19:24.705Z,71.10
2018-10-02T14:21:53.386Z,71.00
2018-10-02T14:24:21.584Z,71.30
2018-10-02T14:26:49.782Z,71.00
2018-10-02T14:29:18.034Z,71.00
2018-10-02T14:31:46.230Z,71.10
2018-10-02T14:34:14.448Z,70.40
2018-10-02T14:36:42.703Z,71.60
2018-10-02T14:39:11.589Z,70.20
2018-10-02T14:41:40.047Z,71.10
2018-10-02T14:44:08.257Z,69.90
2018-10-02T14:46:36.424Z,70.40
2018-10-02T14:49:04.707Z,69.90
2018-10-02T14:51:32.916Z,70.70
2018-10-02T14:54:01.614Z,70.80
2018-10-02T14:56:30.124Z,71.20
2018-10-02T14:58:58.440Z,70.30
2018-10-02T15:01:26.780Z,70.50
2018-10-02T15:03:54.967Z,71.60
2018-10-02T15:06:23.236Z,71.70
2018-10-02T15:08:51.810Z,71.60
2018-10-02T15:11:20.256Z,71.80
2018-10-02T15:13:48.513Z,71.60
2018-10-02T15:16:16.727Z,71.50
2018-10-02T15:18:44.997Z,72.20
2018-10-02T15:21:13.592Z,72.30
2018-10-02T15:23:41.766Z,73.00
2018-10-02T15:26:09.993Z,72.20
2018-10-02T15:28:38.173Z,72.70
2018-10-02T15:31:06.416Z,72.40
2018-10-02T15:33:34.631Z,71.80
2018-10-02T15:36:02.861Z,72.00
2018-10-02T15:38:31.109Z,72.60
2018-10-02T15:40:59.313Z,72.20
2018-10-02T15:43:27.581Z,72.80
2018-10-02T15:45:55.774Z,73.10
2018-10-02T15:48:24.018Z,73.30
2018-10-02T15:50:52.273Z,73.30
2018-10-02T15:53:20.483Z,72.70
2018-10-02T15:55:48.742Z,73.50
2018-10-02T15:58:16.931Z,73.10
2018-10-02T16:00:45.194Z,72.80
2018-10-02T16:03:13.521Z,73.20
2018-10-02T16:05:41.743Z,73.80
2018-10-02T16:08:09.978Z,72.90
2018-10-02T16:10:38.158Z,73.10
2018-10-02T16:13:06.480Z,73.50
2018-10-02T16:15:34.657Z,73.90
2018-10-02T16:18:02.909Z,74.00
2018-10-02T16:20:31.185Z,73.70
2018-10-02T16:22:59.383Z,73.60
2018-10-02T16:25:27.633Z,74.10
2018-10-02T16:27:55.808Z,74.40
2018-10-02T16:30:25.509Z,74.70
2018-10-02T16:32:53.686Z,75.30
2018-10-02T16:35:21.908Z,75.50
2018-10-02T16:37:50.135Z,75.20
2018-10-02T16:40:18.364Z,73.90
2018-10-02T16:42:46.556Z,74.30
2018-10-02T16:45:14.737Z,74.00
2018-10-02T16:47:43.022Z,72.00
2018-10-02T16:50:11.233Z,72.40
2018-10-02T16:52:39.408Z,72.80
2018-10-02T16:55:07.669Z,73.10
2018-10-02T16:57:35.865Z,73.60
2018-10-02T17:00:04.809Z,73.80
2018-10-02T17:02:33.593Z,74.40
2018-10-02T17:05:01.846Z,74.20
2018-10-02T17:07:30.252Z,74.00
2018-10-02T17:09:59.541Z,74.40
2018-10-02T17:12:27.745Z,74.50
2018-10-02T17:14:55.946Z,75.00
2018-10-02T17:17:24.169Z,75.50
2018-10-02T17:19:52.373Z,75.50
2018-10-02T17:22:20.646Z,75.10
2018-10-02T17:24:48.887Z,75.40
2018-10-02T17:27:17.056Z,76.30
2018-10-02T17:29:45.257Z,76.40
2018-10-02T17:32:13.488Z,76.40
2018-10-02T17:34:41.992Z,76.70
2018-10-02T17:37:10.143Z,76.90
2018-10-02T17:39:38.344Z,77.10
2018-10-02T17:42:06.560Z,77.30
2018-10-02T17:44:35.042Z,77.00
2018-10-02T17:47:03.253Z,77.30
2018-10-02T17:49:32.349Z,77.40
2018-10-02T17:52:00.597Z,77.70
2018-10-02T17:54:28.749Z,78.20
2018-10-02T17:56:56.937Z,77.60
2018-10-02T17:59:25.109Z,78.20
2018-10-02T18:01:53.333Z,78.80
2018-10-02T18:04:21.881Z,78.70
2018-10-02T18:06:50.121Z,78.70
2018-10-02T18:09:18.345Z,78.70
2018-10-02T18:11:46.537Z,77.90
2018-10-02T18:14:21.324Z,79.00
2018-10-02T18:16:49.496Z,78.60
2018-10-02T18:19:17.728Z,78.70
2018-10-02T18:21:46.133Z,78.70
2018-10-02T18:24:14.355Z,79.60
2018-10-02T18:26:42.708Z,79.50
2018-10-02T18:29:10.893Z,78.90
2018-10-02T18:31:39.086Z,78.50
2018-10-02T18:34:07.680Z,77.60
2018-10-02T18:36:36.005Z,77.40
2018-10-02T18:39:05.206Z,76.30
2018-10-02T18:41:34.317Z,76.60
2018-10-02T18:44:02.533Z,76.90
2018-10-02T18:46:32.173Z,76.30
2018-10-02T18:49:00.436Z,75.80
2018-10-02T18:51:29.565Z,76.10
2018-10-02T18:53:57.790Z,75.20
2018-10-02T18:56:26.524Z,75.60
2018-10-02T18:58:54.717Z,75.30
2018-10-02T19:01:22.958Z,75.90
2018-10-02T19:03:52.925Z,76.10
2018-10-02T19:06:22.213Z,76.00
2018-10-02T19:08:55.905Z,75.70
2018-10-02T19:11:31.610Z,75.50
2018-10-02T19:14:00.089Z,76.10
2018-10-02T19:16:32.290Z,76.00
2018-10-02T19:19:00.567Z,76.30
2018-10-02T19:21:29.706Z,76.60
2018-10-02T19:23:58.001Z,76.80
2018-10-02T19:26:29.033Z,77.20
2018-10-02T19:28:58.496Z,77.50
2018-10-02T19:31:32.189Z,77.90
2018-10-02T19:34:00.779Z,78.80
2018-10-02T19:36:29.805Z,79.00
2018-10-02T19:39:05.556Z,79.50
2018-10-02T19:41:33.897Z,79.90
2018-10-02T19:44:03.466Z,80.40
2018-10-02T19:46:37.349Z,80.80
2018-10-02T19:49:05.783Z,81.30
2018-10-02T19:51:40.277Z,81.80
2018-10-02T19:54:08.645Z,82.30
2018-10-02T19:56:38.265Z,82.40
2018-10-02T19:59:07.086Z,82.30
2018-10-02T20:01:35.801Z,82.50
2018-10-02T20:04:04.319Z,82.60
2018-10-02T20:06:33.933Z,82.60
2018-10-02T20:09:02.244Z,82.90
2018-10-02T20:11:30.529Z,83.20
2018-10-02T20:13:58.722Z,83.30
2018-10-02T20:16:27.044Z,83.60
2018-10-02T20:18:57.028Z,83.90
2018-10-02T20:21:26.823Z,84.10
2018-10-02T20:23:55.684Z,84.40
2018-10-02T20:26:26.925Z,84.30
2018-10-02T20:28:55.156Z,84.50
2018-10-02T20:31:24.485Z,84.70
2018-10-02T20:33:55.985Z,85.00
2018-10-02T20:36:24.218Z,84.90
2018-10-02T20:38:52.448Z,85.10
2018-10-02T20:41:22.237Z,84.90
2018-10-02T20:43:51.594Z,85.10
2018-10-02T20:46:24.935Z,85.40
2018-10-02T20:48:53.189Z,85.40
2018-10-02T20:51:21.425Z,85.40
2018-10-02T20:53:49.782Z,85.70
2018-10-02T20:56:17.984Z,85.60
2018-10-02T20:58:46.193Z,85.60
2018-10-02T21:01:14.433Z,85.80
2018-10-02T21:03:42.626Z,85.80
2018-10-02T21:06:10.895Z,85.90
2018-10-02T21:08:39.177Z,85.90
2018-10-02T21:11:07.581Z,86.10
2018-10-02T21:13:36.024Z,86.30
2018-10-02T21:16:04.236Z,86.30
2018-10-02T21:18:32.625Z,86.20
2018-10-02T21:21:01.637Z,86.30
2018-10-02T21:23:29.834Z,86.10
2018-10-02T21:25:58.090Z,86.40
2018-10-02T21:28:26.286Z,86.50
2018-10-02T21:30:54.521Z,86.60
2018-10-02T21:33:23.522Z,86.60
2018-10-02T21:35:52.256Z,86.80
2018-10-02T21:38:21.196Z,86.80
2018-10-02T21:40:49.901Z,86.90
2018-10-02T21:43:18.594Z,86.80
2018-10-02T21:45:47.263Z,86.60
2018-10-02T21:48:15.928Z,86.80
2018-10-02T21:50:44.620Z,86.80
2018-10-02T21:53:13.266Z,87.00
2018-10-02T21:55:41.992Z,87.10
2018-10-02T21:58:10.714Z,87.20
2018-10-02T22:00:39.503Z,87.40
2018-10-02T22:03:07.670Z,87.50
2018-10-02T22:05:35.894Z,87.50
2018-10-02T22:08:04.094Z,87.90
2018-10-02T22:10:32.354Z,88.10
2018-10-02T22:13:00.617Z,88.40
2018-10-02T22:15:28.933Z,88.70
2018-10-02T22:17:57.129Z,88.80
2018-10-02T22:20:25.377Z,88.90
2018-10-02T22:22:53.596Z,88.90
2018-10-02T22:25:21.873Z,89.00
2018-10-02T22:27:50.048Z,89.10
2018-10-02T22:30:18.269Z,89.40
2018-10-02T22:32:46.497Z,89.70
2018-10-02T22:35:14.710Z,89.90
2018-10-02T22:37:42.937Z,89.80
2018-10-02T22:40:11.141Z,90.00
2018-10-02T22:42:39.337Z,89.90
2018-10-02T22:45:07.561Z,90.10
2018-10-02T22:47:35.733Z,90.10
2018-10-02T22:50:04.053Z,90.20
2018-10-02T22:52:32.237Z,90.50
2018-10-02T22:55:00.431Z,90.60
2018-10-02T22:57:28.611Z,90.70
2018-10-02T22:59:56.851Z,90.70
2018-10-02T23:02:25.077Z,90.60
2018-10-02T23:04:53.280Z,90.50
2018-10-02T23:07:21.481Z,90.40
2018-10-02T23:09:49.649Z,90.60
2018-10-02T23:12:17.900Z,90.40
2018-10-02T23:14:46.101Z,90.20
2018-10-02T23:17:14.308Z,90.50
2018-10-02T23:19:42.525Z,90.20
2018-10-02T23:22:10.684Z,90.30
2018-10-02T23:24:38.889Z,90.10
2018-10-02T23:27:07.097Z,90.10
2018-10-02T23:29:35.298Z,90.20
2018-10-02T23:32:03.486Z,90.10
2018-10-02T23:34:31.717Z,90.30
2018-10-02T23:37:00.054Z,90.30
2018-10-02T23:39:28.228Z,90.40
2018-10-02T23:41:56.465Z,90.10
2018-10-02T23:44:24.653Z,90.30
2018-10-02T23:46:52.869Z,90.30
2018-10-02T23:49:21.081Z,90.20
2018-10-02T23:51:49.300Z,90.20
2018-10-02T23:54:17.488Z,90.40
2018-10-02T23:56:45.681Z,90.20
2018-10-02T23:59:13.908Z,90.20
